Login to view Products
 
Saturday, June 15, 2019 (21:47 UTC)
Abu Dhabi International Airport
Last Updated: 15-Jun-2019 (21:45Z)
Wind Dir/Speed: SW at 06 kt
Temperature: 31.3°C
Rel. Humidity: 68 %
Pressure: 997.5 hPa
Visibility: 10000 m
ACTUALS:
  • METAR OMAA 152100Z 11002KT CAVOK 33/23 Q0997 NOSIG
  • TAF AMD OMAA 152119Z 1520/1700 VRB02KT 8000 NSC PROB30 1600/1603 1500 BR BECMG 1607/1609 34014KT BECMG 1617/1619 05005KT=
D:\Input Parser\Destinations\Final\21\OMAAL20002119784352405.txt
1